Time;durP1;ratioP1;P1;durP2;ratioP2;P2;SDS_P1;SDS_P2;PMS_P1;PMS_P2;Temp;Humidity;BMP_temperature;BMP_pressure;BME280_temperature;BME280_humidity;BME280_pressure;Samples;Min_cycle;Max_cycle;Signal;HPM_P1;HPM_P2
2024/03/30 00:00:10;;;;;;;1999.90;999.90;;;;;;;10.41;100.00;99642.72;10495785;28;20052;-66
2024/03/30 00:05:11;;;;;;;1999.90;999.90;;;;;;;10.33;100.00;99652.94;10496228;28;20056;-66
2024/03/30 00:10:12;;;;;;;1999.90;999.90;;;;;;;10.22;100.00;99643.22;10495167;28;20090;-66
2024/03/30 00:15:14;;;;;;;1999.90;999.90;;;;;;;10.29;100.00;99643.59;10502796;28;20048;-66
2024/03/30 00:20:15;;;;;;;1999.90;999.90;;;;;;;10.25;100.00;99644.78;10504114;28;20044;-65
2024/03/30 00:25:18;;;;;;;1999.90;999.90;;;;;;;10.10;100.00;99646.75;10503703;28;20056;-65
2024/03/30 00:30:19;;;;;;;1999.90;999.90;;;;;;;10.23;100.00;99639.66;10486488;28;20056;-65
2024/03/30 00:35:21;;;;;;;1999.90;999.90;;;;;;;10.27;100.00;99648.97;10503470;28;20090;-65
2024/03/30 00:40:22;;;;;;;1999.90;999.90;;;;;;;10.28;100.00;99639.34;10503695;28;20053;-65
2024/03/30 00:45:24;;;;;;;1999.90;999.90;;;;;;;10.13;100.00;99628.22;10487122;28;20056;-65
2024/03/30 00:50:25;;;;;;;1999.90;999.90;;;;;;;10.26;100.00;99604.63;10486879;28;20056;-65
2024/03/30 00:55:27;;;;;;;1999.90;999.90;;;;;;;10.07;100.00;99584.22;10485769;28;20086;-65
2024/03/30 01:00:28;;;;;;;1999.90;999.90;;;;;;;10.20;100.00;99580.59;10501827;28;20048;-65
2024/03/30 01:05:30;;;;;;;1999.90;999.90;;;;;;;10.11;100.00;99588.28;10502577;28;20048;-65
2024/03/30 01:10:31;;;;;;;1999.90;999.90;;;;;;;10.14;100.00;99567.13;10502013;28;20106;-65
2024/03/30 01:15:33;;;;;;;1999.90;999.90;;;;;;;10.06;100.00;99549.38;10484371;28;20056;-65
2024/03/30 01:20:35;;;;;;;1999.90;999.90;;;;;;;9.98;100.00;99549.94;10501770;28;20048;-66
2024/03/30 01:25:37;;;;;;;1999.90;999.90;;;;;;;10.05;100.00;99547.72;10500790;28;20053;-65
2024/03/30 01:30:39;;;;;;;1999.90;999.90;;;;;;;9.93;100.00;99546.84;10483818;28;20451;-66
2024/03/30 01:35:40;;;;;;;1999.90;999.90;;;;;;;9.72;100.00;99562.34;10500390;28;20044;-66
2024/03/30 01:40:41;;;;;;;1999.90;999.90;;;;;;;9.81;100.00;99559.06;10484241;28;20052;-66
2024/03/30 01:45:44;;;;;;;1999.90;999.90;;;;;;;9.75;100.00;99556.91;10500943;28;20049;-65
2024/03/30 01:50:45;;;;;;;1999.90;999.90;;;;;;;9.81;100.00;99563.44;10500441;28;20055;-66
2024/03/30 01:55:48;;;;;;;1999.90;999.90;;;;;;;9.73;100.00;99557.94;10500114;28;20049;-66
2024/03/30 02:00:50;;;;;;;1999.90;999.90;;;;;;;9.88;100.00;99553.38;10482872;28;20048;-66
2024/03/30 02:05:53;;;;;;;1999.90;999.90;;;;;;;9.76;100.00;99550.72;10483209;28;20048;-65
2024/03/30 02:10:55;;;;;;;1999.90;999.90;;;;;;;9.88;100.00;99550.75;10498615;28;20485;-65
2024/03/30 02:15:57;;;;;;;1999.90;999.90;;;;;;;9.71;100.00;99542.38;10482700;28;20048;-65
2024/03/30 02:20:58;;;;;;;1999.90;999.90;;;;;;;9.49;100.00;99557.00;10499254;28;20094;-65
2024/03/30 02:26:00;;;;;;;1999.90;999.90;;;;;;;9.61;100.00;99554.47;10499012;28;20082;-65
2024/03/30 02:31:02;;;;;;;1999.90;999.90;;;;;;;9.60;100.00;99576.31;10498256;28;20075;-65
2024/03/30 02:36:04;;;;;;;1999.90;999.90;;;;;;;9.67;100.00;99562.69;10481348;28;20049;-65
2024/03/30 02:41:05;;;;;;;1999.90;999.90;;;;;;;9.85;100.00;99555.28;10480982;28;20409;-65
2024/03/30 02:46:06;;;;;;;1999.90;999.90;;;;;;;9.83;100.00;99556.31;10497669;28;20075;-65
2024/03/30 02:51:08;;;;;;;1999.90;999.90;;;;;;;9.72;100.00;99549.28;10497655;28;20114;-65
2024/03/30 02:56:09;;;;;;;1999.90;999.90;;;;;;;9.72;100.00;99545.84;10497573;28;20190;-65
2024/03/30 03:01:11;;;;;;;1999.90;999.90;;;;;;;9.89;100.00;99540.19;10497605;28;20056;-65
2024/03/30 03:06:12;;;;;;;1999.90;999.90;;;;;;;9.85;100.00;99536.13;10480721;28;20052;-65
2024/03/30 03:11:13;;;;;;;1999.90;999.90;;;;;;;9.61;100.00;99552.66;10496848;28;20057;-65
2024/03/30 03:16:15;;;;;;;1999.90;999.90;;;;;;;9.62;100.00;99536.06;10497509;28;20052;-65
2024/03/30 03:21:16;;;;;;;1999.90;999.90;;;;;;;9.65;100.00;99538.44;10496767;28;20174;-65
2024/03/30 03:26:18;;;;;;;1999.90;999.90;;;;;;;9.56;100.00;99556.59;10496972;28;20052;-65
2024/03/30 03:31:19;;;;;;;1999.90;999.90;;;;;;;9.51;100.00;99556.91;10496709;28;20048;-65
2024/03/30 03:36:20;;;;;;;1999.90;999.90;;;;;;;9.55;100.00;99534.84;10496809;28;20460;-65
2024/03/30 03:41:22;;;;;;;1999.90;999.90;;;;;;;9.72;100.00;99531.00;10496898;28;20102;-65
2024/03/30 03:46:23;;;;;;;1999.90;999.90;;;;;;;9.80;100.00;99519.94;10496304;28;20443;-65
2024/03/30 03:51:25;;;;;;;1999.90;999.90;;;;;;;9.66;100.00;99534.88;10480270;28;20102;-65
2024/03/30 03:56:26;;;;;;;1999.90;999.90;;;;;;;9.62;100.00;99524.78;10496180;28;20079;-65
2024/03/30 04:01:27;;;;;;;1999.90;999.90;;;;;;;9.53;100.00;99521.06;10495683;28;20114;-65
2024/03/30 04:06:29;;;;;;;1999.90;999.90;;;;;;;9.95;100.00;99520.59;10495007;28;20486;-65
2024/03/30 04:11:30;;;;;;;1999.90;999.90;;;;;;;9.71;100.00;99510.19;10495365;28;20056;-65
2024/03/30 04:16:32;;;;;;;1999.90;999.90;;;;;;;10.13;100.00;99508.75;10494740;28;20409;-65
2024/03/30 04:21:33;;;;;;;1999.90;999.90;;;;;;;9.73;100.00;99503.88;10478413;28;20052;-65
2024/03/30 04:26:35;;;;;;;1999.90;999.90;;;;;;;9.47;100.00;99514.50;10479193;28;20079;-65
2024/03/30 04:31:36;;;;;;;1999.90;999.90;;;;;;;9.62;100.00;99496.84;10495568;28;20059;-65
2024/03/30 04:36:37;;;;;;;1999.90;999.90;;;;;;;9.83;100.00;99507.50;10478551;28;20048;-65
2024/03/30 04:41:39;;;;;;;1999.90;999.90;;;;;;;9.62;100.00;99494.25;10495276;28;20056;-65
2024/03/30 04:46:40;;;;;;;1999.90;999.90;;;;;;;9.84;100.00;99498.69;10478454;28;20059;-65
2024/03/30 04:51:41;;;;;;;1999.90;999.90;;;;;;;9.74;100.00;99504.75;10495124;28;20056;-65
2024/03/30 04:56:43;;;;;;;1999.90;999.90;;;;;;;9.81;100.00;99493.69;10477869;28;20511;-65
2024/03/30 05:01:44;;;;;;;1999.90;999.90;;;;;;;9.57;100.00;99485.09;10501238;28;20485;-65
2024/03/30 05:06:46;;;;;;;1999.90;999.90;;;;;;;9.59;100.00;99485.81;10501478;28;20053;-66
2024/03/30 05:11:47;;;;;;;1999.90;999.90;;;;;;;9.64;100.00;99471.44;10501375;28;20061;-65
2024/03/30 05:16:48;;;;;;;1999.90;999.90;;;;;;;9.67;100.00;99457.31;10501403;28;20379;-65
2024/03/30 05:21:51;;;;;;;1999.90;999.90;;;;;;;9.73;100.00;99456.03;10509369;22;20044;-65
2024/03/30 05:26:53;;;;;;;1999.90;999.90;;;;;;;9.47;100.00;99448.34;10484335;28;20059;-65
2024/03/30 05:31:54;;;;;;;1999.90;999.90;;;;;;;9.56;100.00;99445.03;10467363;28;20481;-65
2024/03/30 05:36:56;;;;;;;1999.90;999.90;;;;;;;9.64;100.00;99432.25;10484303;28;20405;-65
2024/03/30 05:41:57;;;;;;;1999.90;999.90;;;;;;;9.58;100.00;99437.94;10483584;28;20489;-65
2024/03/30 05:46:59;;;;;;;1999.90;999.90;;;;;;;9.59;100.00;99434.38;10467308;28;20052;-65
2024/03/30 05:52:01;;;;;;;1999.90;999.90;;;;;;;9.49;100.00;99423.78;10483500;28;20056;-65
2024/03/30 05:57:02;;;;;;;1999.90;999.90;;;;;;;9.47;100.00;99415.22;10483404;28;20048;-65
2024/03/30 06:02:04;;;;;;;1999.90;999.90;;;;;;;9.57;100.00;99410.13;10482841;28;20052;-66
2024/03/30 06:07:08;;;;;;;1999.90;999.90;;;;;;;9.70;100.00;99410.06;10482399;28;20398;-65
2024/03/30 06:12:09;;;;;;;1999.90;999.90;;;;;;;9.74;100.00;99406.25;10481626;28;20044;-65
2024/03/30 06:17:11;;;;;;;1999.90;999.90;;;;;;;9.69;100.00;99413.59;10499334;28;20048;-65
2024/03/30 06:22:12;;;;;;;1999.90;999.90;;;;;;;9.74;100.00;99408.88;10499140;28;20059;-65
2024/03/30 06:27:13;;;;;;;1999.90;999.90;;;;;;;9.90;100.00;99403.31;10499027;28;20057;-66
2024/03/30 06:32:15;;;;;;;1999.90;999.90;;;;;;;9.81;100.00;99417.06;10498786;28;20059;-65
2024/03/30 06:37:16;;;;;;;1999.90;999.90;;;;;;;9.96;100.00;99415.06;10498012;28;20055;-65
2024/03/30 06:47:38;;;;;;;1999.90;999.90;;;;;;;9.72;100.00;99420.41;10481597;28;20056;-65
2024/03/30 06:52:40;;;;;;;1999.90;999.90;;;;;;;9.86;100.00;99418.38;10497983;28;20059;-65
2024/03/30 06:57:41;;;;;;;1999.90;999.90;;;;;;;10.07;100.00;99419.47;10480825;28;20052;-65
2024/03/30 07:02:42;;;;;;;1999.90;999.90;;;;;;;10.01;100.00;99415.53;10497480;28;20059;-65
2024/03/30 07:07:44;;;;;;;1999.90;999.90;;;;;;;10.20;100.00;99407.09;10497399;28;20055;-65
2024/03/30 07:12:47;;;;;;;1999.90;999.90;;;;;;;10.28;100.00;99403.91;10464604;28;20052;-65
2024/03/30 07:17:49;;;;;;;1999.90;999.90;;;;;;;10.26;100.00;99414.47;10480196;28;20041;-65
2024/03/30 07:22:50;;;;;;;1999.90;999.90;;;;;;;10.48;100.00;99399.75;10479750;28;20059;-65
2024/03/30 07:27:52;;;;;;;1999.90;999.90;;;;;;;10.68;100.00;99403.41;10496398;28;20045;-65
2024/03/30 07:32:53;;;;;;;1999.90;999.90;;;;;;;10.76;100.00;99401.00;10463048;28;20063;-65
2024/03/30 07:37:54;;;;;;;1999.90;999.90;;;;;;;10.75;100.00;99384.44;10496410;28;20055;-65
2024/03/30 07:42:56;;;;;;;1999.90;999.90;;;;;;;10.22;100.00;99411.28;10496184;28;20056;-65
2024/03/30 07:47:57;;;;;;;1999.90;999.90;;;;;;;10.44;100.00;99382.59;10496525;28;20056;-65
2024/03/30 07:52:58;;;;;;;1999.90;999.90;;;;;;;10.68;100.00;99362.34;10496348;28;20064;-65
2024/03/30 07:58:00;;;;;;;1999.90;999.90;;;;;;;10.67;100.00;99359.84;10495975;28;20075;-65
2024/03/30 08:03:01;;;;;;;1999.90;999.90;;;;;;;10.45;100.00;99364.16;10496042;28;20106;-65
2024/03/30 08:08:03;;;;;;;1999.90;999.90;;;;;;;10.60;100.00;99373.41;10479779;28;20040;-65
2024/03/30 08:13:04;;;;;;;1999.90;999.90;;;;;;;10.70;100.00;99352.56;10478773;28;20486;-65
2024/03/30 08:18:06;;;;;;;1999.90;999.90;;;;;;;10.96;100.00;99354.84;10478478;28;20504;-65
2024/03/30 08:23:07;;;;;;;1999.90;999.90;;;;;;;11.56;100.00;99341.19;10478466;28;20516;-65
2024/03/30 08:28:10;;;;;;;1999.90;999.90;;;;;;;11.62;100.00;99327.56;10496128;28;20044;-65
2024/03/30 08:33:11;;;;;;;1999.90;999.90;;;;;;;12.38;100.00;99316.66;10480662;28;20056;-65
2024/03/30 08:38:13;;;;;;;1999.90;999.90;;;;;;;12.67;100.00;99308.78;10486196;28;20493;-65
2024/03/30 08:43:17;;;;;;;1999.90;999.90;;;;;;;11.98;100.00;99304.41;10469369;28;20048;-65
2024/03/30 08:48:19;;;;;;;1999.90;999.90;;;;;;;12.61;100.00;99302.31;10467403;28;20109;-65
2024/03/30 08:53:21;;;;;;;1999.90;999.90;;;;;;;13.09;100.00;99297.97;10480497;28;20059;-65
2024/03/30 08:58:22;;;;;;;1999.90;999.90;;;;;;;12.73;100.00;99283.78;10461332;28;20051;-65
2024/03/30 09:03:24;;;;;;;1999.90;999.90;;;;;;;12.54;100.00;99281.97;10451811;28;20060;-65
2024/03/30 09:08:26;;;;;;;1999.90;999.90;;;;;;;13.16;100.00;99290.34;10441017;28;20059;-64
2024/03/30 09:13:27;;;;;;;1999.90;999.90;;;;;;;13.38;100.00;99284.81;10458730;28;20463;-64
2024/03/30 09:18:29;;;;;;;1999.90;999.90;;;;;;;13.60;100.00;99266.19;10438276;28;20428;-65
2024/03/30 09:23:31;;;;;;;1999.90;999.90;;;;;;;13.78;100.00;99263.63;10454195;28;20060;-65
2024/03/30 09:28:33;;;;;;;1999.90;999.90;;;;;;;13.48;100.00;99274.28;10477831;28;20044;-65
2024/03/30 09:33:34;;;;;;;1999.90;999.90;;;;;;;13.61;100.00;99278.38;10486575;28;20784;-65
2024/03/30 09:38:36;;;;;;;1999.90;999.90;;;;;;;13.99;100.00;99287.06;10455738;28;20416;-66
2024/03/30 09:43:39;;;;;;;1999.90;999.90;;;;;;;14.20;100.00;99292.88;10468844;28;20044;-66
2024/03/30 09:48:41;;;;;;;1999.90;999.90;;;;;;;14.85;100.00;99273.44;10460796;28;20071;-65
2024/03/30 09:53:44;;;;;;;1999.90;999.90;;;;;;;14.74;98.83;99271.03;10451564;28;20094;-66
2024/03/30 09:58:46;;;;;;;1999.90;999.90;;;;;;;15.06;99.38;99267.81;10483651;28;20504;-66
2024/03/30 10:03:47;;;;;;;1999.90;999.90;;;;;;;15.46;100.00;99286.69;10483261;28;20048;-66
2024/03/30 10:08:50;;;;;;;1999.90;999.90;;;;;;;15.07;95.40;99284.47;10482155;28;20545;-66
2024/03/30 10:14:13;;;;;;;1999.90;999.90;;;;;;;15.25;97.57;99285.25;10456787;28;20103;-66
2024/03/30 10:19:16;;;;;;;1999.90;999.90;;;;;;;15.00;95.77;99281.63;10498597;28;20045;-66
2024/03/30 10:24:17;;;;;;;1999.90;999.90;;;;;;;15.10;93.13;99279.72;10481585;28;20057;-66
2024/03/30 10:29:19;;;;;;;1999.90;999.90;;;;;;;14.79;94.13;99284.56;10424033;28;20159;-66
2024/03/30 10:34:20;;;;;;;1999.90;999.90;;;;;;;15.07;95.02;99264.22;10456882;28;20490;-66
2024/03/30 10:39:22;;;;;;;1999.90;999.90;;;;;;;15.27;94.21;99253.47;10423546;28;20441;-66
2024/03/30 10:44:30;;;;;;;1999.90;999.90;;;;;;;15.63;93.34;99224.28;10439779;28;20060;-66
2024/03/30 10:49:31;;;;;;;1999.90;999.90;;;;;;;15.84;96.79;99216.00;10439653;28;20049;-66
2024/03/30 10:54:32;;;;;;;1999.90;999.90;;;;;;;15.81;98.00;99240.88;10423209;28;20056;-66
2024/03/30 10:59:40;;;;;;;1999.90;999.90;;;;;;;15.76;100.00;99236.06;10438445;28;20056;-66
2024/03/30 11:04:43;;;;;;;1999.90;999.90;;;;;;;16.04;96.91;99229.72;10407806;28;20057;-66
2024/03/30 11:09:45;;;;;;;1999.90;999.90;;;;;;;16.21;98.28;99231.41;10455195;28;20060;-67
2024/03/30 11:14:46;;;;;;;1999.90;999.90;;;;;;;15.93;95.06;99250.13;10422843;28;20053;-66
2024/03/30 11:20:13;;;;;;;1999.90;999.90;;;;;;;16.39;96.39;99260.34;10438290;28;20048;-66
2024/03/30 11:25:14;;;;;;;1999.90;999.90;;;;;;;16.25;93.65;99268.88;10406323;28;20064;-67
2024/03/30 11:30:36;;;;;;;1999.90;999.90;;;;;;;16.42;90.36;99273.19;10438265;28;20429;-66
2024/03/30 11:35:47;;;;;;;1999.90;999.90;;;;;;;16.45;89.70;99304.56;10438168;28;20513;-66
2024/03/30 11:40:59;;;;;;;1999.90;999.90;;;;;;;16.42;92.92;99314.63;10421487;28;20066;-65
2024/03/30 11:46:00;;;;;;;;;;;;;;;16.15;90.80;99327.94;10439028;28;20063;-65
2024/03/30 11:51:01;;;;;;;1999.90;999.90;;;;;;;15.30;91.13;99337.50;10438486;28;19921;-64
2024/03/30 11:56:03;;;;;;;1999.90;999.90;;;;;;;15.39;92.59;99352.41;10437697;28;20049;-64
2024/03/30 12:01:09;;;;;;;1999.90;999.90;;;;;;;15.29;93.62;99359.59;10437564;28;20076;-65
2024/03/30 12:06:19;;;;;;;1999.90;999.90;;;;;;;15.57;91.88;99363.75;10437812;28;20469;-65
2024/03/30 12:11:21;;;;;;;1999.90;999.90;;;;;;;15.71;87.31;99361.50;10445925;28;20057;-64
2024/03/30 12:16:22;;;;;;;1999.90;999.90;;;;;;;15.94;84.23;99359.19;10446570;28;20048;-64
2024/03/30 12:21:24;;;;;;;1999.90;999.90;;;;;;;16.08;81.71;99342.75;10429225;28;20060;-64
2024/03/30 12:26:25;;;;;;;1999.90;999.90;;;;;;;16.05;82.86;99347.53;10445569;28;20065;-64
2024/03/30 12:31:31;;;;;;;1999.90;999.90;;;;;;;15.57;82.16;99341.81;10445881;28;20524;-65
2024/03/30 12:36:32;;;;;;;1999.90;999.90;;;;;;;15.63;79.61;99370.19;10445101;28;20049;-64
2024/03/30 12:41:34;;;;;;;1999.90;999.90;;;;;;;15.72;78.13;99381.66;10445599;28;20068;-65
2024/03/30 12:46:35;;;;;;;1999.90;999.90;;;;;;;16.08;76.59;99384.16;10427982;28;20401;-65
2024/03/30 12:51:37;;;;;;;1999.90;999.90;;;;;;;15.51;77.86;99393.38;10428121;28;20048;-64
2024/03/30 12:56:39;;;;;;;1999.90;999.90;;;;;;;15.69;79.28;99395.97;10461082;28;20072;-64
2024/03/30 13:01:40;;;;;;;1999.90;999.90;;;;;;;15.19;78.13;99417.69;10444406;28;20063;-64
2024/03/30 13:06:45;;;;;;;1999.90;999.90;;;;;;;15.40;77.98;99399.72;10461363;28;20053;-65
2024/03/30 13:11:47;;;;;;;1999.90;999.90;;;;;;;14.98;76.11;99416.19;10443690;28;20409;-64
2024/03/30 13:16:49;;;;;;;1999.90;999.90;;;;;;;15.15;77.15;99438.25;10443163;28;20114;-64
2024/03/30 13:21:50;;;;;;;1999.90;999.90;;;;;;;14.89;76.42;99464.50;10410070;28;20053;-64
2024/03/30 13:26:52;;;;;;;1999.90;999.90;;;;;;;15.16;76.80;99447.81;10443080;28;20497;-65
2024/03/30 13:31:53;;;;;;;1999.90;999.90;;;;;;;15.07;76.01;99450.53;10426387;28;20056;-64
2024/03/30 13:36:54;;;;;;;1999.90;999.90;;;;;;;14.86;76.90;99464.78;10442622;28;20045;-64
2024/03/30 13:41:56;;;;;;;1999.90;999.90;;;;;;;14.86;76.79;99489.34;10443026;28;20057;-64
2024/03/30 13:46:58;;;;;;;1999.90;999.90;;;;;;;15.32;75.31;99467.41;10442920;28;20052;-64
2024/03/30 13:51:59;;;;;;;1999.90;999.90;;;;;;;15.38;75.39;99474.69;10442633;28;20057;-65
2024/03/30 13:57:01;;;;;;;1999.90;999.90;;;;;;;15.88;73.48;99460.94;10442090;28;20041;-65
2024/03/30 14:02:02;;;;;;;1999.90;999.90;;;;;;;15.26;75.62;99478.53;10442459;28;20055;-64
2024/03/30 14:07:04;;;;;;;1999.90;999.90;;;;;;;15.44;76.08;99502.28;10442003;28;20383;-65
2024/03/30 14:12:06;;;;;;;1999.90;999.90;;;;;;;15.53;75.00;99510.13;10441807;28;20049;-65
2024/03/30 14:17:09;;;;;;;1999.90;999.90;;;;;;;15.00;75.32;99530.19;10441506;28;20057;-64
2024/03/30 14:22:10;;;;;;;1999.90;999.90;;;;;;;15.61;74.89;99538.38;10441275;28;20090;-65
2024/03/30 14:27:15;;;;;;;1999.90;999.90;;;;;;;14.54;78.09;99565.28;10441602;28;20052;-64
2024/03/30 14:32:19;;;;;;;1999.90;999.90;;;;;;;14.86;78.54;99591.28;10440167;28;20048;-65
2024/03/30 14:37:21;;;;;;;1999.90;999.90;;;;;;;14.58;79.72;99599.13;10440405;28;20119;-64
2024/03/30 14:42:22;;;;;;;1999.90;999.90;;;;;;;14.82;78.38;99611.00;10456775;28;20056;-64
2024/03/30 14:47:24;;;;;;;1999.90;999.90;;;;;;;14.33;79.09;99636.59;10440798;28;20045;-65
2024/03/30 14:52:25;;;;;;;1999.90;999.90;;;;;;;13.37;83.16;99647.72;10457394;28;20061;-64
2024/03/30 14:57:26;;;;;;;1999.90;999.90;;;;;;;13.19;81.53;99666.72;10439630;28;20405;-64
2024/03/30 15:02:28;;;;;;;1999.90;999.90;;;;;;;13.32;83.25;99661.28;10439019;28;20056;-64
2024/03/30 15:07:36;;;;;;;1999.90;999.90;;;;;;;13.77;81.37;99652.09;10485869;22;20433;-64
2024/03/30 15:12:38;;;;;;;1999.90;999.90;;;;;;;14.31;79.69;99644.63;10392335;28;20354;-65
2024/03/30 15:17:39;;;;;;;1999.90;999.90;;;;;;;14.13;76.30;99657.66;10407825;28;20061;-64
2024/03/30 15:22:41;;;;;;;1999.90;999.90;;;;;;;13.94;77.24;99655.88;10391817;28;20050;-65
2024/03/30 15:27:42;;;;;;;1999.90;999.90;;;;;;;13.77;77.61;99649.47;10408038;28;20057;-65
2024/03/30 15:32:43;;;;;;;1999.90;999.90;;;;;;;13.64;77.98;99638.38;10407359;28;20053;-65
2024/03/30 15:37:45;;;;;;;1999.90;999.90;;;;;;;13.41;77.87;99637.78;10407107;28;20488;-65
2024/03/30 15:42:46;;;;;;;1999.90;999.90;;;;;;;13.14;81.97;99634.75;10404271;28;20481;-66
2024/03/30 15:48:01;;;;;;;1999.90;999.90;;;;;;;13.40;81.59;99629.06;10360163;28;20058;-66
2024/03/30 15:53:02;;;;;;;1999.90;999.90;;;;;;;13.28;84.09;99609.91;10349765;28;20061;-66
2024/03/30 15:58:04;;;;;;;1999.90;999.90;;;;;;;13.06;85.63;99605.66;10366070;28;20058;-66
2024/03/30 16:03:05;;;;;;;1999.90;999.90;;;;;;;12.93;85.89;99608.53;10364890;28;20069;-66
2024/03/30 16:08:07;;;;;;;1999.90;999.90;;;;;;;12.90;86.82;99637.69;10364920;28;20058;-66
2024/03/30 16:13:08;;;;;;;1999.90;999.90;;;;;;;12.46;90.12;99655.44;10348806;28;20449;-66
2024/03/30 16:18:10;;;;;;;1999.90;999.90;;;;;;;12.43;93.69;99668.81;10341669;28;20464;-66
2024/03/30 16:23:11;;;;;;;1999.90;999.90;;;;;;;12.27;93.74;99690.22;10336751;28;20062;-66
2024/03/30 16:28:13;;;;;;;1999.90;999.90;;;;;;;11.80;94.12;99727.19;10338029;28;20058;-66
2024/03/30 16:33:14;;;;;;;1999.90;999.90;;;;;;;11.78;95.29;99734.34;10337930;28;20046;-66
2024/03/30 16:38:15;;;;;;;1999.90;999.90;;;;;;;11.79;97.78;99720.28;10321877;28;20201;-66
2024/03/30 16:43:17;;;;;;;1999.90;999.90;;;;;;;11.43;99.83;99677.69;10337303;28;20047;-66
2024/03/30 16:48:18;;;;;;;1999.90;999.90;;;;;;;11.44;100.00;99658.38;10336721;28;20061;-66
2024/03/30 16:53:20;;;;;;;1999.90;999.90;;;;;;;11.42;100.00;99656.84;10336746;28;20062;-66
2024/03/30 16:58:21;;;;;;;1999.90;999.90;;;;;;;11.49;100.00;99686.84;10336744;28;20113;-66
2024/03/30 17:03:23;;;;;;;1999.90;999.90;;;;;;;11.06;100.00;99713.75;10335861;28;20073;-66
2024/03/30 17:08:24;;;;;;;1999.90;999.90;;;;;;;11.24;100.00;99733.28;10335640;28;20062;-66
2024/03/30 17:13:25;;;;;;;1999.90;999.90;;;;;;;11.46;100.00;99748.19;10335459;28;20421;-66
2024/03/30 17:18:27;;;;;;;1999.90;999.90;;;;;;;11.15;100.00;99762.84;10335369;28;20382;-66
2024/03/30 17:23:29;;;;;;;1999.90;999.90;;;;;;;11.46;100.00;99752.59;10334927;28;20054;-66
2024/03/30 17:28:30;;;;;;;1999.90;999.90;;;;;;;11.54;100.00;99750.22;10318906;28;20117;-66
2024/03/30 17:33:32;;;;;;;1999.90;999.90;;;;;;;10.84;100.00;99759.06;10335496;28;20062;-66
2024/03/30 17:38:34;;;;;;;1999.90;999.90;;;;;;;10.71;100.00;99791.41;10334713;28;20416;-66
2024/03/30 17:43:36;;;;;;;1999.90;999.90;;;;;;;10.77;100.00;99798.78;10318753;28;20043;-66
2024/03/30 17:48:38;;;;;;;1999.90;999.90;;;;;;;10.88;100.00;99794.56;10318787;28;20105;-66
2024/03/30 17:53:43;;;;;;;1999.90;999.90;;;;;;;10.92;100.00;99802.06;10333944;28;20411;-66
2024/03/30 17:58:46;;;;;;;1999.90;999.90;;;;;;;10.89;100.00;99809.31;10318305;28;20066;-66
2024/03/30 18:03:49;;;;;;;1999.90;999.90;;;;;;;10.75;100.00;99821.63;10317543;28;20050;-66
2024/03/30 18:08:51;;;;;;;1999.90;999.90;;;;;;;10.66;100.00;99842.41;10333312;28;20398;-66
2024/03/30 18:13:52;;;;;;;1999.90;999.90;;;;;;;10.57;100.00;99859.63;10332997;28;20058;-66
2024/03/30 18:18:54;;;;;;;1999.90;999.90;;;;;;;10.52;100.00;99856.50;10333662;28;20077;-66
2024/03/30 18:23:55;;;;;;;1999.90;999.90;;;;;;;10.41;100.00;99859.91;10332672;28;20505;-66
2024/03/30 18:28:56;;;;;;;1999.90;999.90;;;;;;;10.22;100.00;99876.03;10333232;28;20054;-66
2024/03/30 18:33:58;;;;;;;1999.90;999.90;;;;;;;10.07;100.00;99891.03;10332176;28;20445;-66
2024/03/30 18:38:59;;;;;;;1999.90;999.90;;;;;;;10.25;100.00;99898.53;10332928;28;20065;-66
2024/03/30 18:44:02;;;;;;;1999.90;999.90;;;;;;;10.01;100.00;99897.53;10332733;28;20108;-66
2024/03/30 18:49:03;;;;;;;1999.90;999.90;;;;;;;9.89;100.00;99894.94;10331885;28;20410;-66
2024/03/30 18:54:04;;;;;;;1999.90;999.90;;;;;;;9.74;100.00;99902.03;10332211;28;20050;-66
2024/03/30 18:59:06;;;;;;;1999.90;999.90;;;;;;;9.62;100.00;99916.78;10331677;28;20054;-66
2024/03/30 19:04:07;;;;;;;1999.90;999.90;;;;;;;9.62;100.00;99914.16;10332033;28;20050;-66
2024/03/30 19:09:09;;;;;;;1999.90;999.90;;;;;;;9.36;100.00;99914.13;10315579;28;20057;-66
2024/03/30 19:14:10;;;;;;;1999.90;999.90;;;;;;;9.17;100.00;99924.13;10331765;28;20409;-66
2024/03/30 19:19:12;;;;;;;1999.90;999.90;;;;;;;9.05;100.00;99930.97;10331549;28;20504;-66
2024/03/30 19:24:15;;;;;;;1999.90;999.90;;;;;;;9.24;100.00;99941.88;10331690;28;20051;-66
2024/03/30 19:29:17;;;;;;;1999.90;999.90;;;;;;;9.27;100.00;99935.63;10315863;28;20054;-66
2024/03/30 19:34:18;;;;;;;1999.90;999.90;;;;;;;9.44;100.00;99930.13;10315889;28;20050;-66
2024/03/30 19:39:20;;;;;;;1999.90;999.90;;;;;;;9.27;100.00;99928.63;10331682;28;20058;-66
2024/03/30 19:44:21;;;;;;;1999.90;999.90;;;;;;;9.52;100.00;99929.63;10331477;28;20042;-66
2024/03/30 19:49:22;;;;;;;1999.90;999.90;;;;;;;9.34;100.00;99930.84;10331695;28;20104;-66
2024/03/30 19:54:24;;;;;;;1999.90;999.90;;;;;;;9.30;100.00;99935.44;10322467;28;20055;-66
2024/03/30 19:59:25;;;;;;;1999.90;999.90;;;;;;;9.46;100.00;99937.84;10338861;28;20050;-66
2024/03/30 20:04:26;;;;;;;1999.90;999.90;;;;;;;9.35;100.00;99924.69;10337483;28;20379;-66
2024/03/30 20:09:28;;;;;;;1999.90;999.90;;;;;;;9.18;100.00;99917.94;10337907;28;20062;-66
2024/03/30 20:14:29;;;;;;;1999.90;999.90;;;;;;;9.17;100.00;99924.13;10338470;28;20050;-66
2024/03/30 20:19:31;;;;;;;1999.90;999.90;;;;;;;9.05;100.00;99923.16;10338169;28;20077;-66
2024/03/30 20:24:33;;;;;;;1999.90;999.90;;;;;;;8.98;100.00;99925.31;10336894;28;20046;-66
2024/03/30 20:29:35;;;;;;;1999.90;999.90;;;;;;;9.00;100.00;99918.22;10337877;28;20046;-66
2024/03/30 20:34:36;;;;;;;1999.90;999.90;;;;;;;9.08;100.00;99917.72;10337478;28;20077;-66
2024/03/30 20:39:37;;;;;;;1999.90;999.90;;;;;;;9.06;100.00;99911.75;10337429;28;20054;-66
2024/03/30 20:44:39;;;;;;;1999.90;999.90;;;;;;;8.95;100.00;99915.06;10336983;28;20050;-66
2024/03/30 20:49:40;;;;;;;1999.90;999.90;;;;;;;8.87;100.00;99904.28;10336733;28;20409;-66
2024/03/30 20:54:42;;;;;;;1999.90;999.90;;;;;;;8.76;100.00;99886.72;10335910;28;20456;-66
2024/03/30 20:59:44;;;;;;;1999.90;999.90;;;;;;;8.62;100.00;99895.41;10320492;28;20058;-66
2024/03/30 21:04:46;;;;;;;1999.90;999.90;;;;;;;8.44;100.00;99907.00;10335944;28;20085;-66
2024/03/30 21:09:48;;;;;;;1999.90;999.90;;;;;;;8.27;100.00;99914.09;10335709;28;20062;-66
2024/03/30 21:14:52;;;;;;;1999.90;999.90;;;;;;;8.40;100.00;99913.31;10336206;28;20058;-66
2024/03/30 21:19:54;;;;;;;1999.90;999.90;;;;;;;8.05;100.00;99908.50;10335290;28;20072;-66
2024/03/30 21:24:56;;;;;;;1999.90;999.90;;;;;;;7.99;100.00;99930.59;10335324;28;20057;-66
2024/03/30 21:29:57;;;;;;;1999.90;999.90;;;;;;;7.66;100.00;99938.63;10335785;28;20050;-66
2024/03/30 21:34:58;;;;;;;1999.90;999.90;;;;;;;7.78;100.00;99946.59;10334693;28;20050;-66
2024/03/30 21:40:01;;;;;;;1999.90;999.90;;;;;;;7.52;100.00;99953.31;10335309;28;20058;-66
2024/03/30 21:45:03;;;;;;;1999.90;999.90;;;;;;;7.77;100.00;99949.28;10334397;28;20478;-66
2024/03/30 21:50:05;;;;;;;1999.90;999.90;;;;;;;7.63;100.00;99955.28;10334012;28;20054;-65
2024/03/30 21:55:07;;;;;;;1999.90;999.90;;;;;;;7.28;100.00;99960.78;10334490;28;20054;-65
2024/03/30 22:00:10;;;;;;;1999.90;999.90;;;;;;;7.20;100.00;99944.75;10333831;28;20050;-65
2024/03/30 22:05:11;;;;;;;1999.90;999.90;;;;;;;7.19;100.00;99943.88;10333639;28;20490;-65